sensor_id;sensor_type;location;lat;lon;timestamp;pressure;altitude;pressure_sealevel;temperature;humidity
55656;BME280;41530;52.382;5.270;2023-01-26T00:01:16;102735.97;;;12.99;51.17
55656;BME280;41530;52.382;5.270;2023-01-26T00:03:43;102724.63;;;12.97;51.08
55656;BME280;41530;52.382;5.270;2023-01-26T00:06:12;102721.91;;;12.98;51.29
55656;BME280;41530;52.382;5.270;2023-01-26T00:08:42;102726.34;;;12.98;50.96
55656;BME280;41530;52.382;5.270;2023-01-26T00:11:11;102728.97;;;12.98;51.16
55656;BME280;41530;52.382;5.270;2023-01-26T00:13:38;102716.63;;;12.98;51.16
55656;BME280;41530;52.382;5.270;2023-01-26T00:16:14;102717.47;;;12.99;50.99
55656;BME280;41530;52.382;5.270;2023-01-26T00:18:42;102703.56;;;12.95;51.21
55656;BME280;41530;52.382;5.270;2023-01-26T00:21:17;102709.56;;;12.99;51.15
55656;BME280;41530;52.382;5.270;2023-01-26T00:23:45;102711.41;;;12.97;51.24
55656;BME280;41530;52.382;5.270;2023-01-26T00:26:14;102705.34;;;12.95;51.31
55656;BME280;41530;52.382;5.270;2023-01-26T00:28:42;102712.28;;;12.97;51.20
55656;BME280;41530;52.382;5.270;2023-01-26T00:31:14;102708.00;;;12.95;51.12
55656;BME280;41530;52.382;5.270;2023-01-26T00:33:41;102711.41;;;12.97;51.08
55656;BME280;41530;52.382;5.270;2023-01-26T00:36:08;102708.78;;;12.97;51.12
55656;BME280;41530;52.382;5.270;2023-01-26T00:38:35;102696.63;;;12.93;50.73
55656;BME280;41530;52.382;5.270;2023-01-26T00:41:02;102699.47;;;12.90;50.58
55656;BME280;41530;52.382;5.270;2023-01-26T00:43:30;102698.69;;;12.88;50.55
55656;BME280;41530;52.382;5.270;2023-01-26T00:45:57;102698.03;;;12.82;50.54
55656;BME280;41530;52.382;5.270;2023-01-26T00:48:24;102691.97;;;12.80;50.35
55656;BME280;41530;52.382;5.270;2023-01-26T00:50:51;102692.91;;;12.79;50.64
55656;BME280;41530;52.382;5.270;2023-01-26T00:53:19;102692.16;;;12.77;50.45
55656;BME280;41530;52.382;5.270;2023-01-26T00:55:45;102688.72;;;12.75;50.17
55656;BME280;41530;52.382;5.270;2023-01-26T00:58:12;102692.38;;;12.73;50.03
55656;BME280;41530;52.382;5.270;2023-01-26T01:00:38;102684.50;;;12.71;50.14
55656;BME280;41530;52.382;5.270;2023-01-26T01:03:06;102687.22;;;12.70;50.12
55656;BME280;41530;52.382;5.270;2023-01-26T01:05:32;102674.25;;;12.65;49.97
55656;BME280;41530;52.382;5.270;2023-01-26T01:08:00;102678.59;;;12.66;49.76
55656;BME280;41530;52.382;5.270;2023-01-26T01:10:28;102685.66;;;12.66;49.86
55656;BME280;41530;52.382;5.270;2023-01-26T01:12:55;102678.75;;;12.63;49.68
55656;BME280;41530;52.382;5.270;2023-01-26T01:15:23;102674.56;;;12.59;49.66
55656;BME280;41530;52.382;5.270;2023-01-26T01:17:50;102683.25;;;12.61;49.65
55656;BME280;41530;52.382;5.270;2023-01-26T01:20:18;102686.84;;;12.60;49.55
55656;BME280;41530;52.382;5.270;2023-01-26T01:22:45;102681.63;;;12.59;49.70
55656;BME280;41530;52.382;5.270;2023-01-26T01:25:13;102686.03;;;12.58;49.77
55656;BME280;41530;52.382;5.270;2023-01-26T01:27:40;102681.91;;;12.53;49.70
55656;BME280;41530;52.382;5.270;2023-01-26T01:30:07;102676.56;;;12.54;49.46
55656;BME280;41530;52.382;5.270;2023-01-26T01:32:35;102675.88;;;12.51;49.39
55656;BME280;41530;52.382;5.270;2023-01-26T01:35:02;102680.97;;;12.54;49.50
55656;BME280;41530;52.382;5.270;2023-01-26T01:37:29;102682.75;;;12.53;49.61
55656;BME280;41530;52.382;5.270;2023-01-26T01:39:56;102684.66;;;12.51;49.17
55656;BME280;41530;52.382;5.270;2023-01-26T01:42:24;102682.16;;;12.48;49.15
55656;BME280;41530;52.382;5.270;2023-01-26T01:45:26;102676.94;;;12.46;48.89
55656;BME280;41530;52.382;5.270;2023-01-26T01:48:02;102687.56;;;12.45;49.01
55656;BME280;41530;52.382;5.270;2023-01-26T01:50:36;102687.56;;;12.45;49.08
55656;BME280;41530;52.382;5.270;2023-01-26T01:53:07;102683.34;;;12.41;49.01
55656;BME280;41530;52.382;5.270;2023-01-26T01:55:36;102691.13;;;12.44;49.16
55656;BME280;41530;52.382;5.270;2023-01-26T01:58:04;102689.56;;;12.40;49.12
55656;BME280;41530;52.382;5.270;2023-01-26T02:00:32;102686.00;;;12.41;49.44
55656;BME280;41530;52.382;5.270;2023-01-26T02:03:07;102686.00;;;12.41;48.89
55656;BME280;41530;52.382;5.270;2023-01-26T02:08:21;102688.81;;;12.38;49.14
55656;BME280;41530;52.382;5.270;2023-01-26T02:10:53;102691.44;;;12.38;49.05
55656;BME280;41530;52.382;5.270;2023-01-26T02:13:21;102694.09;;;12.38;49.07
55656;BME280;41530;52.382;5.270;2023-01-26T02:15:49;102686.31;;;12.35;49.18
55656;BME280;41530;52.382;5.270;2023-01-26T02:18:17;102692.44;;;12.35;49.29
55656;BME280;41530;52.382;5.270;2023-01-26T02:20:46;102694.22;;;12.35;48.98
55656;BME280;41530;52.382;5.270;2023-01-26T02:23:32;102697.78;;;12.34;49.26
55656;BME280;41530;52.382;5.270;2023-01-26T02:26:26;102696.94;;;12.33;49.32
55656;BME280;41530;52.382;5.270;2023-01-26T02:28:54;102689.09;;;12.32;49.16
55656;BME280;41530;52.382;5.270;2023-01-26T02:35:10;102663.63;;;12.12;48.97
55656;BME280;41530;52.382;5.270;2023-01-26T02:37:47;102603.00;;;11.73;49.11
55656;BME280;41530;52.382;5.270;2023-01-26T02:43:38;102631.13;;;11.93;48.82
55656;BME280;41530;52.382;5.270;2023-01-26T02:46:16;102588.50;;;11.64;49.25
55656;BME280;41530;52.382;5.270;2023-01-26T02:49:14;102675.88;;;12.13;49.27
55656;BME280;41530;52.382;5.270;2023-01-26T02:52:10;102673.34;;;12.11;48.99
55656;BME280;41530;52.382;5.270;2023-01-26T02:54:51;102590.34;;;11.62;49.13
55656;BME280;41530;52.382;5.270;2023-01-26T03:00:58;102597.91;;;11.70;49.21
55656;BME280;41530;52.382;5.270;2023-01-26T03:03:42;102659.66;;;12.03;48.91
55656;BME280;41530;52.382;5.270;2023-01-26T03:06:20;102606.88;;;11.66;48.86
55656;BME280;41530;52.382;5.270;2023-01-26T03:09:20;102606.03;;;11.65;48.73
55656;BME280;41530;52.382;5.270;2023-01-26T03:12:12;102618.16;;;11.69;49.15
55656;BME280;41530;52.382;5.270;2023-01-26T03:14:49;102614.72;;;11.67;48.76
55656;BME280;41530;52.382;5.270;2023-01-26T03:17:41;102605.53;;;11.57;49.00
55656;BME280;41530;52.382;5.270;2023-01-26T03:20:34;102611.50;;;11.61;48.83
55656;BME280;41530;52.382;5.270;2023-01-26T03:23:28;102616.63;;;11.64;49.14
55656;BME280;41530;52.382;5.270;2023-01-26T03:26:16;102618.41;;;11.63;49.19
55656;BME280;41530;52.382;5.270;2023-01-26T03:29:33;102614.84;;;11.64;49.17
55656;BME280;41530;52.382;5.270;2023-01-26T03:32:14;102665.28;;;11.96;49.31
55656;BME280;41530;52.382;5.270;2023-01-26T03:34:41;102697.09;;;12.11;48.84
55656;BME280;41530;52.382;5.270;2023-01-26T03:37:08;102699.72;;;12.11;48.88
55656;BME280;41530;52.382;5.270;2023-01-26T03:39:35;102704.16;;;12.11;49.16
55656;BME280;41530;52.382;5.270;2023-01-26T03:42:20;102696.31;;;12.09;49.02
55656;BME280;41530;52.382;5.270;2023-01-26T03:45:06;102691.88;;;12.10;49.37
55656;BME280;41530;52.382;5.270;2023-01-26T03:47:51;102702.44;;;12.10;49.30
55656;BME280;41530;52.382;5.270;2023-01-26T03:50:36;102696.31;;;12.09;49.11
55656;BME280;41530;52.382;5.270;2023-01-26T03:53:23;102689.44;;;12.05;49.43
55656;BME280;41530;52.382;5.270;2023-01-26T03:56:09;102692.09;;;12.05;49.58
55656;BME280;41530;52.382;5.270;2023-01-26T03:58:52;102691.22;;;12.05;49.30
55656;BME280;41530;52.382;5.270;2023-01-26T04:01:20;102684.19;;;12.05;49.25
55656;BME280;41530;52.382;5.270;2023-01-26T04:03:55;102685.81;;;12.08;49.59
55656;BME280;41530;52.382;5.270;2023-01-26T04:06:42;102692.88;;;12.07;49.32
55656;BME280;41530;52.382;5.270;2023-01-26T04:09:28;102683.25;;;12.06;49.53
55656;BME280;41530;52.382;5.270;2023-01-26T04:11:56;102691.09;;;12.08;49.23
55656;BME280;41530;52.382;5.270;2023-01-26T04:14:23;102694.66;;;12.07;49.47
55656;BME280;41530;52.382;5.270;2023-01-26T04:17:16;102691.22;;;12.05;49.68
55656;BME280;41530;52.382;5.270;2023-01-26T04:20:03;102693.00;;;12.04;49.67
55656;BME280;41530;52.382;5.270;2023-01-26T04:22:48;102701.84;;;12.03;49.49
55656;BME280;41530;52.382;5.270;2023-01-26T04:25:18;102687.75;;;12.04;49.41
55656;BME280;41530;52.382;5.270;2023-01-26T04:27:45;102692.16;;;12.04;49.55
55656;BME280;41530;52.382;5.270;2023-01-26T04:30:14;102694.78;;;12.04;49.72
55656;BME280;41530;52.382;5.270;2023-01-26T04:32:41;102679.91;;;12.03;49.59
55656;BME280;41530;52.382;5.270;2023-01-26T04:35:08;102688.66;;;12.03;49.67
55656;BME280;41530;52.382;5.270;2023-01-26T04:37:36;102687.59;;;12.07;49.46
55656;BME280;41530;52.382;5.270;2023-01-26T04:40:04;102690.19;;;12.09;49.34
55656;BME280;41530;52.382;5.270;2023-01-26T04:42:31;102689.19;;;12.11;49.49
55656;BME280;41530;52.382;5.270;2023-01-26T04:44:59;102686.44;;;12.13;49.59
55656;BME280;41530;52.382;5.270;2023-01-26T04:47:25;102687.22;;;12.15;49.27
55656;BME280;41530;52.382;5.270;2023-01-26T04:49:54;102678.31;;;12.18;49.36
55656;BME280;41530;52.382;5.270;2023-01-26T04:52:21;102674.03;;;12.15;49.34
55656;BME280;41530;52.382;5.270;2023-01-26T04:54:48;102643.88;;;12.02;49.22
55656;BME280;41530;52.382;5.270;2023-01-26T04:57:15;102675.53;;;12.21;49.44
55656;BME280;41530;52.382;5.270;2023-01-26T04:59:42;102670.28;;;12.21;49.22
55656;BME280;41530;52.382;5.270;2023-01-26T05:02:09;102676.34;;;12.23;49.61
55656;BME280;41530;52.382;5.270;2023-01-26T05:04:35;102668.34;;;12.24;49.42
55656;BME280;41530;52.382;5.270;2023-01-26T05:07:02;102672.66;;;12.25;49.65
55656;BME280;41530;52.382;5.270;2023-01-26T05:09:29;102669.97;;;12.27;49.22
55656;BME280;41530;52.382;5.270;2023-01-26T05:11:56;102670.81;;;12.27;49.27
55656;BME280;41530;52.382;5.270;2023-01-26T05:14:43;102670.81;;;12.27;49.32
55656;BME280;41530;52.382;5.270;2023-01-26T05:17:09;102673.31;;;12.30;49.26
55656;BME280;41530;52.382;5.270;2023-01-26T05:19:36;102664.53;;;12.30;49.17
55656;BME280;41530;52.382;5.270;2023-01-26T05:22:04;102666.25;;;12.31;49.34
55656;BME280;41530;52.382;5.270;2023-01-26T05:24:31;102669.81;;;12.30;49.54
55656;BME280;41530;52.382;5.270;2023-01-26T05:26:58;102669.81;;;12.30;49.38
55656;BME280;41530;52.382;5.270;2023-01-26T05:29:43;102668.81;;;12.32;49.46
55656;BME280;41530;52.382;5.270;2023-01-26T05:32:10;102674.09;;;12.32;49.09
55656;BME280;41530;52.382;5.270;2023-01-26T05:34:38;102668.75;;;12.34;49.52
55656;BME280;41530;52.382;5.270;2023-01-26T05:37:04;102671.41;;;12.34;49.37
55656;BME280;41530;52.382;5.270;2023-01-26T05:39:31;102675.81;;;12.33;49.38
55656;BME280;41530;52.382;5.270;2023-01-26T05:41:59;102674.25;;;12.29;49.13
55656;BME280;41530;52.382;5.270;2023-01-26T05:44:25;102679.31;;;12.34;49.43
55656;BME280;41530;52.382;5.270;2023-01-26T05:46:52;102686.31;;;12.35;49.09
55656;BME280;41530;52.382;5.270;2023-01-26T05:49:18;102675.75;;;12.35;49.44
55656;BME280;41530;52.382;5.270;2023-01-26T05:51:46;102688.03;;;12.36;49.38
55656;BME280;41530;52.382;5.270;2023-01-26T05:54:12;102688.81;;;12.38;49.18
55656;BME280;41530;52.382;5.270;2023-01-26T05:56:39;102688.81;;;12.38;49.23
55656;BME280;41530;52.382;5.270;2023-01-26T05:59:07;102692.28;;;12.38;49.40
55656;BME280;41530;52.382;5.270;2023-01-26T06:01:33;102669.97;;;12.27;49.22
55656;BME280;41530;52.382;5.270;2023-01-26T06:04:00;102694.09;;;12.38;49.24
55656;BME280;41530;52.382;5.270;2023-01-26T06:06:27;102700.13;;;12.40;49.24
55656;BME280;41530;52.382;5.270;2023-01-26T06:08:54;102695.69;;;12.40;49.24
55656;BME280;41530;52.382;5.270;2023-01-26T06:11:22;102693.97;;;12.39;49.08
55656;BME280;41530;52.382;5.270;2023-01-26T06:13:48;102690.34;;;12.42;49.38
55656;BME280;41530;52.382;5.270;2023-01-26T06:16:16;102697.41;;;12.41;49.07
55656;BME280;41530;52.382;5.270;2023-01-26T06:18:42;102693.84;;;12.42;49.48
55656;BME280;41530;52.382;5.270;2023-01-26T06:21:09;102694.63;;;12.44;49.37
55656;BME280;41530;52.382;5.270;2023-01-26T06:23:36;102698.06;;;12.46;49.71
55656;BME280;41530;52.382;5.270;2023-01-26T06:26:03;102690.06;;;12.48;49.70
55656;BME280;41530;52.382;5.270;2023-01-26T06:28:31;102698.78;;;12.50;49.62
55656;BME280;41530;52.382;5.270;2023-01-26T06:31:00;102697.13;;;12.47;49.75
55656;BME280;41530;52.382;5.270;2023-01-26T06:33:27;102698.69;;;12.52;49.24
55656;BME280;41530;52.382;5.270;2023-01-26T06:35:54;102712.72;;;12.52;49.07
55656;BME280;41530;52.382;5.270;2023-01-26T06:38:21;102699.06;;;12.44;49.71
55656;BME280;41530;52.382;5.270;2023-01-26T06:40:48;102710.88;;;12.54;49.59
55656;BME280;41530;52.382;5.270;2023-01-26T06:43:16;102718.72;;;12.56;49.43
55656;BME280;41530;52.382;5.270;2023-01-26T06:45:43;102716.94;;;12.56;49.43
55656;BME280;41530;52.382;5.270;2023-01-26T06:48:10;102711.81;;;12.53;49.34
55656;BME280;41530;52.382;5.270;2023-01-26T06:50:38;102709.09;;;12.55;49.30
55656;BME280;41530;52.382;5.270;2023-01-26T06:53:25;102716.94;;;12.56;49.50
55656;BME280;41530;52.382;5.270;2023-01-26T06:55:54;102723.94;;;12.57;49.55
55656;BME280;41530;52.382;5.270;2023-01-26T06:58:21;102720.38;;;12.58;49.41
55656;BME280;41530;52.382;5.270;2023-01-26T07:00:48;102725.66;;;12.58;49.40
55656;BME280;41530;52.382;5.270;2023-01-26T07:03:15;102722.16;;;12.58;49.69
55656;BME280;41530;52.382;5.270;2023-01-26T07:05:42;102724.72;;;12.59;49.58
55656;BME280;41530;52.382;5.270;2023-01-26T07:08:09;102734.44;;;12.59;49.51
55656;BME280;41530;52.382;5.270;2023-01-26T07:10:37;102734.44;;;12.59;49.54
55656;BME280;41530;52.382;5.270;2023-01-26T07:13:04;102738.78;;;12.60;49.48
55656;BME280;41530;52.382;5.270;2023-01-26T07:15:32;102729.28;;;12.56;49.37
55656;BME280;41530;52.382;5.270;2023-01-26T07:17:59;102739.63;;;12.60;49.85
55656;BME280;41530;52.382;5.270;2023-01-26T07:20:26;102744.91;;;12.60;49.77
55656;BME280;41530;52.382;5.270;2023-01-26T07:22:53;102744.91;;;12.60;49.41
55656;BME280;41530;52.382;5.270;2023-01-26T07:25:19;102742.34;;;12.59;49.40
55656;BME280;41530;52.382;5.270;2023-01-26T07:27:46;102744.91;;;12.60;49.85
55656;BME280;41530;52.382;5.270;2023-01-26T07:30:13;102751.13;;;12.59;50.04
55656;BME280;41530;52.382;5.270;2023-01-26T07:32:39;102746.78;;;12.58;49.54
55656;BME280;41530;52.382;5.270;2023-01-26T07:35:06;102748.47;;;12.59;49.83
55656;BME280;41530;52.382;5.270;2023-01-26T07:37:33;102750.19;;;12.60;49.83
55656;BME280;41530;52.382;5.270;2023-01-26T07:40:00;102757.19;;;12.61;49.64
55656;BME280;41530;52.382;5.270;2023-01-26T07:42:27;102762.41;;;12.63;50.09
55656;BME280;41530;52.382;5.270;2023-01-26T07:44:56;102750.06;;;12.63;50.18
55656;BME280;41530;52.382;5.270;2023-01-26T07:47:23;102758.84;;;12.64;50.29
55656;BME280;41530;52.382;5.270;2023-01-26T07:49:49;102765.84;;;12.65;50.06
55656;BME280;41530;52.382;5.270;2023-01-26T07:52:16;102766.66;;;12.65;50.14
55656;BME280;41530;52.382;5.270;2023-01-26T07:54:43;102763.19;;;12.65;50.53
55656;BME280;41530;52.382;5.270;2023-01-26T07:57:11;102767.50;;;12.66;50.44
55656;BME280;41530;52.382;5.270;2023-01-26T07:59:38;102771.81;;;12.68;50.41
55656;BME280;41530;52.382;5.270;2023-01-26T08:02:05;102767.31;;;12.70;50.35
55656;BME280;41530;52.382;5.270;2023-01-26T08:04:31;102776.94;;;12.71;50.64
55656;BME280;41530;52.382;5.270;2023-01-26T08:06:59;102768.16;;;12.71;50.64
55656;BME280;41530;52.382;5.270;2023-01-26T08:09:26;102770.81;;;12.71;50.66
55656;BME280;41530;52.382;5.270;2023-01-26T08:11:55;102769.94;;;12.70;50.64
55656;BME280;41530;52.382;5.270;2023-01-26T08:14:22;102772.44;;;12.73;50.60
55656;BME280;41530;52.382;5.270;2023-01-26T08:16:49;102770.59;;;12.75;50.78
55656;BME280;41530;52.382;5.270;2023-01-26T08:19:16;102772.31;;;12.76;50.81
55656;BME280;41530;52.382;5.270;2023-01-26T08:21:43;102773.91;;;12.79;51.06
55656;BME280;41530;52.382;5.270;2023-01-26T08:24:11;102780.00;;;12.81;51.21
55656;BME280;41530;52.382;5.270;2023-01-26T08:26:37;102777.28;;;12.82;50.93
55656;BME280;41530;52.382;5.270;2023-01-26T08:29:04;102776.28;;;12.85;51.04
55656;BME280;41530;52.382;5.270;2023-01-26T08:31:31;102776.13;;;12.88;50.95
55656;BME280;41530;52.382;5.270;2023-01-26T08:33:58;102790.13;;;12.90;50.70
55656;BME280;41530;52.382;5.270;2023-01-26T08:36:25;102792.66;;;12.92;50.70
55656;BME280;41530;52.382;5.270;2023-01-26T08:38:53;102802.25;;;12.94;50.81
55656;BME280;41530;52.382;5.270;2023-01-26T08:41:20;102800.38;;;12.96;50.88
55656;BME280;41530;52.382;5.270;2023-01-26T08:43:48;102804.66;;;12.99;50.85
55656;BME280;41530;52.382;5.270;2023-01-26T08:46:16;102806.38;;;13.00;50.83
55656;BME280;41530;52.382;5.270;2023-01-26T08:48:43;102800.16;;;13.01;50.76
55656;BME280;41530;52.382;5.270;2023-01-26T08:51:10;102804.59;;;13.00;50.61
55656;BME280;41530;52.382;5.270;2023-01-26T08:53:38;102808.03;;;13.02;50.77
55656;BME280;41530;52.382;5.270;2023-01-26T08:56:06;102808.81;;;13.04;50.85
55656;BME280;41530;52.382;5.270;2023-01-26T08:58:34;102798.47;;;13.00;50.89
55656;BME280;41530;52.382;5.270;2023-01-26T09:01:05;102813.06;;;13.07;50.72
55656;BME280;41530;52.382;5.270;2023-01-26T09:03:33;102813.06;;;13.07;50.72
55656;BME280;41530;52.382;5.270;2023-01-26T09:06:00;102812.22;;;13.06;50.79
55656;BME280;41530;52.382;5.270;2023-01-26T09:08:27;102818.34;;;13.07;50.62
55656;BME280;41530;52.382;5.270;2023-01-26T09:10:55;102814.78;;;13.08;50.78
55656;BME280;41530;52.382;5.270;2023-01-26T09:13:22;102811.22;;;13.09;50.63
55656;BME280;41530;52.382;5.270;2023-01-26T09:15:49;102813.13;;;13.05;50.51
55656;BME280;41530;52.382;5.270;2023-01-26T09:18:16;102820.78;;;13.11;50.77
55656;BME280;41530;52.382;5.270;2023-01-26T09:20:43;102826.00;;;13.13;50.64
55656;BME280;41530;52.382;5.270;2023-01-26T09:23:10;102820.72;;;13.13;50.60
55656;BME280;41530;52.382;5.270;2023-01-26T09:25:38;102818.91;;;13.13;50.41
55656;BME280;41530;52.382;5.270;2023-01-26T09:28:06;102830.34;;;13.14;50.71
55656;BME280;41530;52.382;5.270;2023-01-26T09:30:33;102829.47;;;13.15;50.51
55656;BME280;41530;52.382;5.270;2023-01-26T09:33:02;102841.75;;;13.16;50.73
55656;BME280;41530;52.382;5.270;2023-01-26T09:35:30;102828.63;;;13.13;50.68
55656;BME280;41530;52.382;5.270;2023-01-26T09:37:56;102824.97;;;13.17;50.64
55656;BME280;41530;52.382;5.270;2023-01-26T09:45:43;102815.91;;;13.21;50.57
55656;BME280;41530;52.382;5.270;2023-01-26T09:51:04;102827.47;;;13.37;50.52
55656;BME280;41530;52.382;5.270;2023-01-26T09:53:49;102823.66;;;13.43;50.27
55656;BME280;41530;52.382;5.270;2023-01-26T09:56:21;102830.41;;;13.48;50.17
55656;BME280;41530;52.382;5.270;2023-01-26T10:01:47;102823.72;;;13.59;50.17
55656;BME280;41530;52.382;5.270;2023-01-26T10:06:55;102828.56;;;13.68;49.99
55656;BME280;41530;52.382;5.270;2023-01-26T10:09:25;102829.25;;;13.71;50.05
55656;BME280;41530;52.382;5.270;2023-01-26T10:11:57;102826.44;;;13.74;49.84
55656;BME280;41530;52.382;5.270;2023-01-26T10:14:35;102820.91;;;13.79;49.94
55656;BME280;41530;52.382;5.270;2023-01-26T10:17:13;102814.94;;;13.75;49.86
55656;BME280;41530;52.382;5.270;2023-01-26T10:19:45;102812.84;;;13.82;49.95
55656;BME280;41530;52.382;5.270;2023-01-26T10:22:19;102811.13;;;13.81;50.03
55656;BME280;41530;52.382;5.270;2023-01-26T10:24:49;102817.19;;;13.83;49.96
55656;BME280;41530;52.382;5.270;2023-01-26T10:27:16;102820.50;;;13.86;50.01
55656;BME280;41530;52.382;5.270;2023-01-26T10:29:44;102826.59;;;13.88;50.08
55656;BME280;41530;52.382;5.270;2023-01-26T10:32:13;102823.00;;;13.89;49.94
55656;BME280;41530;52.382;5.270;2023-01-26T10:34:40;102831.72;;;13.91;49.95
55656;BME280;41530;52.382;5.270;2023-01-26T10:37:27;102818.66;;;13.88;49.73
55656;BME280;41530;52.382;5.270;2023-01-26T10:40:03;102835.16;;;13.94;49.98
55656;BME280;41530;52.382;5.270;2023-01-26T10:42:33;102836.78;;;13.96;49.95
55656;BME280;41530;52.382;5.270;2023-01-26T10:45:06;102840.38;;;13.95;49.95
55656;BME280;41530;52.382;5.270;2023-01-26T10:48:17;102841.16;;;13.97;50.00
55656;BME280;41530;52.382;5.270;2023-01-26T10:50:46;102841.16;;;13.97;50.00
55656;BME280;41530;52.382;5.270;2023-01-26T10:53:16;102847.28;;;13.98;49.88
55656;BME280;41530;52.382;5.270;2023-01-26T10:58:53;102844.72;;;13.96;49.88
55656;BME280;41530;52.382;5.270;2023-01-26T11:01:21;102843.78;;;13.97;50.04
55656;BME280;41530;52.382;5.270;2023-01-26T11:04:06;102844.66;;;13.98;50.20
55656;BME280;41530;52.382;5.270;2023-01-26T11:06:44;102845.47;;;13.98;50.01
55656;BME280;41530;52.382;5.270;2023-01-26T11:09:18;102841.03;;;13.99;49.97
55656;BME280;41530;52.382;5.270;2023-01-26T11:12:02;102841.03;;;13.99;50.03
55656;BME280;41530;52.382;5.270;2023-01-26T11:14:31;102841.03;;;13.99;50.00
55656;BME280;41530;52.382;5.270;2023-01-26T11:17:13;102842.81;;;13.98;50.01
55656;BME280;41530;52.382;5.270;2023-01-26T11:25:38;102839.34;;;13.98;50.04
55656;BME280;41530;52.382;5.270;2023-01-26T11:31:03;102834.28;;;13.93;50.13
55656;BME280;41530;52.382;5.270;2023-01-26T11:33:44;102834.88;;;13.98;50.31
55656;BME280;41530;52.382;5.270;2023-01-26T11:36:31;102834.88;;;13.98;50.07
55656;BME280;41530;52.382;5.270;2023-01-26T11:39:13;102835.84;;;13.97;49.93
55656;BME280;41530;52.382;5.270;2023-01-26T11:44:54;102833.22;;;13.97;50.08
55656;BME280;41530;52.382;5.270;2023-01-26T11:56:20;102821.56;;;14.00;50.21
55656;BME280;41530;52.382;5.270;2023-01-26T11:59:13;102819.78;;;14.00;50.04
55656;BME280;41530;52.382;5.270;2023-01-26T12:01:58;102830.38;;;14.00;50.06
55656;BME280;41530;52.382;5.270;2023-01-26T12:04:31;102819.78;;;14.00;50.30
55656;BME280;41530;52.382;5.270;2023-01-26T12:07:11;102821.44;;;14.03;50.14
55656;BME280;41530;52.382;5.270;2023-01-26T12:09:48;102823.28;;;14.01;50.15
55656;BME280;41530;52.382;5.270;2023-01-26T12:15:10;102810.84;;;14.03;50.27
55656;BME280;41530;52.382;5.270;2023-01-26T12:17:57;102809.97;;;14.02;49.99
55656;BME280;41530;52.382;5.270;2023-01-26T12:20:30;102810.06;;;14.01;50.16
55656;BME280;41530;52.382;5.270;2023-01-26T12:26:09;102798.63;;;14.00;50.07
55656;BME280;41530;52.382;5.270;2023-01-26T12:28:58;102803.69;;;14.05;50.20
55656;BME280;41530;52.382;5.270;2023-01-26T12:34:25;102785.38;;;14.00;50.19
55656;BME280;41530;52.382;5.270;2023-01-26T12:39:47;102793.00;;;14.06;50.03
55656;BME280;41530;52.382;5.270;2023-01-26T12:45:00;102758.91;;;14.00;50.12
55656;BME280;41530;52.382;5.270;2023-01-26T12:47:31;102772.69;;;14.07;50.25
55656;BME280;41530;52.382;5.270;2023-01-26T12:50:14;102769.19;;;14.06;50.22
55656;BME280;41530;52.382;5.270;2023-01-26T12:52:54;102767.31;;;14.08;50.18
55656;BME280;41530;52.382;5.270;2023-01-26T12:55:33;102766.47;;;14.08;50.18
55656;BME280;41530;52.382;5.270;2023-01-26T12:58:16;102760.47;;;14.04;50.20
55656;BME280;41530;52.382;5.270;2023-01-26T13:01:13;102762.13;;;14.07;50.17
55656;BME280;41530;52.382;5.270;2023-01-26T13:03:43;102763.97;;;14.05;50.33
55656;BME280;41530;52.382;5.270;2023-01-26T13:08:47;102758.75;;;14.03;50.45
55656;BME280;41530;52.382;5.270;2023-01-26T13:11:58;102770.13;;;14.05;50.44
55656;BME280;41530;52.382;5.270;2023-01-26T13:14:57;102766.72;;;14.03;50.23
55656;BME280;41530;52.382;5.270;2023-01-26T13:19:52;102769.28;;;14.05;50.36
55656;BME280;41530;52.382;5.270;2023-01-26T13:27:44;102763.91;;;14.06;50.42
55656;BME280;41530;52.382;5.270;2023-01-26T13:35:21;102758.59;;;14.06;50.41
55656;BME280;41530;52.382;5.270;2023-01-26T13:38:00;102763.75;;;14.09;50.34
55656;BME280;41530;52.382;5.270;2023-01-26T13:40:35;102766.41;;;14.09;50.57
55656;BME280;41530;52.382;5.270;2023-01-26T13:46:05;102756.91;;;14.05;50.54
55656;BME280;41530;52.382;5.270;2023-01-26T13:48:52;102775.19;;;14.10;50.45
55656;BME280;41530;52.382;5.270;2023-01-26T13:51:28;102765.69;;;14.06;50.38
55656;BME280;41530;52.382;5.270;2023-01-26T13:54:09;102767.25;;;14.10;50.57
55656;BME280;41530;52.382;5.270;2023-01-26T13:56:39;102762.88;;;14.09;50.33
55656;BME280;41530;52.382;5.270;2023-01-26T13:59:15;102763.66;;;14.11;50.48
55656;BME280;41530;52.382;5.270;2023-01-26T14:01:44;102760.25;;;14.09;50.42
55656;BME280;41530;52.382;5.270;2023-01-26T14:04:16;102761.94;;;14.10;50.42
55656;BME280;41530;52.382;5.270;2023-01-26T14:06:51;102752.31;;;14.09;50.53
55656;BME280;41530;52.382;5.270;2023-01-26T14:09:19;102757.75;;;14.06;50.62
55656;BME280;41530;52.382;5.270;2023-01-26T14:11:59;102751.44;;;14.08;50.50
55656;BME280;41530;52.382;5.270;2023-01-26T14:14:30;102754.00;;;14.10;50.71
55656;BME280;41530;52.382;5.270;2023-01-26T14:16:58;102761.09;;;14.09;50.68
55656;BME280;41530;52.382;5.270;2023-01-26T14:19:26;102761.03;;;14.11;50.63
55656;BME280;41530;52.382;5.270;2023-01-26T14:24:30;102760.16;;;14.10;50.61
55656;BME280;41530;52.382;5.270;2023-01-26T14:26:57;102761.25;;;14.06;50.43
55656;BME280;41530;52.382;5.270;2023-01-26T14:29:26;102759.31;;;14.10;50.58
55656;BME280;41530;52.382;5.270;2023-01-26T14:31:56;102762.97;;;14.07;50.65
55656;BME280;41530;52.382;5.270;2023-01-26T14:34:26;102762.81;;;14.10;50.82
55656;BME280;41530;52.382;5.270;2023-01-26T14:37:05;102765.47;;;14.10;50.70
55656;BME280;41530;52.382;5.270;2023-01-26T14:39:32;102747.16;;;14.06;50.59
55656;BME280;41530;52.382;5.270;2023-01-26T14:41:59;102763.75;;;14.09;50.66